Vremea acum in Cluj Napoca - Romania

Vrei sa afli care e starea vremii acum in Cluj - Romania? Dorim sa iti furnizam starea vremii pentru Cluj - Romania. Starea vremii Cluj - Romania pentru astazi.

Vremea acum in Cluj Napoca

Temperatura: 21 °C

Se simte ca: 21 °C
Innorat: 0 %
Precipitatii: 0 %
Presiune atmosferica: 1019 hPa
Umiditate: 40%
Vizibilitate: 10 km
Vantul bate din E cu 11.2 km/h

Evolutia vremii in Cluj Napoca pe ore

Ora: 14:00
Parțial noros
Temperatura: 20.1°C
Sansa de precipitatii: 0%
Ora Descriere Temp Se simte Precipitatii Umiditate Vant
00:00Parțial noros11.9°11.6°0%61%SSE 6.1 KM/H
01:00Parțial noros11.5°11.3°0%65%SSE 5.8 KM/H
02:00Parțial noros11.1°10.9°0%69%SSE 5.4 KM/H
03:00Parțial noros11.1°10.9°0%71%SSE 5.4 KM/H
04:00Parțial noros11.1°11°0%73%SSE 5 KM/H
05:00Parțial noros11.1°11°0%76%SSE 5 KM/H
06:00Parțial noros11.6°11.6°0%74%SSE 5 KM/H
07:00Parțial noros12.2°12.2°0%72%SSE 5 KM/H
08:00Parțial noros12.7°12.8°0%70%SSE 5 KM/H
09:00Parțial noros14.4°14.5°0%62%SE 6.1 KM/H
10:00Parțial noros16.1°16.1°0%54%SE 6.8 KM/H
11:00Parțial noros17.8°17.8°0%47%ESE 7.9 KM/H
12:00Parțial noros18.6°18.6°0%44%ESE 7.9 KM/H
13:00Parțial noros19.3°19.3°0%42%ESE 7.9 KM/H
14:00Parțial noros20.1°20.1°0%40%E 7.9 KM/H
15:00Parțial noros19.2°19.2°0%43%E 6.5 KM/H
16:00Parțial noros18.2°18.2°0%47%E 5 KM/H
17:00Parțial noros17.3°17.3°0%51%ENE 3.6 KM/H
18:00Parțial noros16.1°16.2°0%54%SE 4 KM/H
19:00Parțial noros14.9°15°0%57%SSW 4.7 KM/H
20:00Parțial noros13.7°13.9°0%60%W 5 KM/H
21:00Parțial noros13.5°13.8°0%61%W 5 KM/H
22:00Parțial noros13.4°13.6°0%63%W 4.7 KM/H
23:00Parțial noros13.2°13.5°0%64%W 4.7 KM/H